Fox River Grove, Illinois
Current Conditions -  °F | °C
As of 10:52 PM on Saturday 25 Oct 2014 (Local Time) from KPWK Reporting Station
Clear Clear  
Wind Chill: 55°   Ceiling: Unl
Heat Index: 55°   Visibility: 10mi
Dew Point: 28°   Wind: 7mph
Humidity: 35%   Direction: 310°NW
Pressure: 29.98"   Gusts: NA
Location:  42.2°N, 88.21°W
Report Text: KPWK 260352Z AUTO 31006KT 10SM CLR 13/M02 A2998 RMK AO2 SLP152 T01281022
Loading
Personal Weather Stations






























Interactive Weather Map New forecast layout! Learn more

10-Day Weather Forecast

Advertisements
Track Severe Weather on mobile